Time;durP1;ratioP1;P1;durP2;ratioP2;P2;SDS_P1;SDS_P2;PMS_P1;PMS_P2;Temp;Humidity;BMP_temperature;BMP_pressure;BME280_temperature;BME280_humidity;BME280_pressure;Samples;Min_cycle;Max_cycle;Signal;HPM_P1;HPM_P2
2022/06/10 00:02:25;;;;;;;4.50;1.70;;;14.30;99.90;;;;;;6945328;28;20081;-81
2022/06/10 00:05:50;;;;;;;5.90;2.17;;;14.30;99.90;;;;;;6943831;28;20111;-81
2022/06/10 00:09:14;;;;;;;5.03;1.40;;;14.30;99.90;;;;;;6945247;28;20056;-81
2022/06/10 00:12:36;;;;;;;3.75;1.60;;;14.40;99.90;;;;;;6945029;28;20510;-80
2022/06/10 00:15:59;;;;;;;3.70;1.60;;;14.40;99.90;;;;;;6943736;28;20052;-80
2022/06/10 00:19:21;;;;;;;;;;;14.40;99.90;;;;;;6945835;28;20045;-79
2022/06/10 00:22:43;;;;;;;4.57;1.52;;;14.30;99.90;;;;;;6944749;28;19921;-79
2022/06/10 00:26:08;;;;;;;5.28;1.40;;;14.30;99.90;;;;;;6944319;28;20046;-80
2022/06/10 00:29:31;;;;;;;3.53;1.50;;;14.30;99.90;;;;;;6945440;28;20151;-80
2022/06/10 00:32:54;;;;;;;5.63;1.50;;;14.20;99.90;;;;;;6944968;28;20045;-79
2022/06/10 00:36:16;;;;;;;;;;;14.20;99.90;;;;;;6944163;28;20057;-80
2022/06/10 00:39:39;;;;;;;9.00;1.73;;;14.30;99.90;;;;;;6944253;28;19975;-79
2022/06/10 00:43:03;;;;;;;5.22;1.50;;;14.30;99.90;;;;;;6944603;28;20511;-79
2022/06/10 00:46:32;;;;;;;4.15;1.52;;;14.30;99.90;;;;;;6947384;28;20045;-77
2022/06/10 00:49:58;;;;;;;2.80;1.30;;;14.30;99.90;;;;;;6947533;28;20442;-82
2022/06/10 00:53:26;;;;;;;4.25;1.55;;;14.10;99.90;;;;;;6949223;28;20480;-79
2022/06/10 00:56:54;;;;;;;5.03;1.63;;;14.00;99.90;;;;;;6947431;28;20046;-81
2022/06/10 01:00:20;;;;;;;5.35;1.70;;;14.00;99.90;;;;;;6946217;28;20138;-80
2022/06/10 01:03:42;;;;;;;5.63;1.73;;;14.00;99.90;;;;;;6945631;28;20395;-79
2022/06/10 01:07:05;;;;;;;6.28;1.75;;;14.00;99.90;;;;;;6948008;28;20487;-78
2022/06/10 01:10:30;;;;;;;3.97;1.70;;;14.00;99.90;;;;;;6947580;28;20128;-80
2022/06/10 01:14:04;;;;;;;3.55;1.52;;;14.00;99.90;;;;;;6930548;28;20131;-80
2022/06/10 01:17:46;;;;;;;7.25;1.60;;;14.10;99.90;;;;;;6944076;28;20081;-79
2022/06/10 01:21:30;;;;;;;4.03;1.52;;;14.00;99.90;;;;;;6943191;28;20088;-77
2022/06/10 01:25:40;;;;;;;4.70;1.67;;;14.00;99.90;;;;;;6942867;28;20065;-80
2022/06/10 01:29:36;;;;;;;5.53;1.65;;;14.00;99.90;;;;;;6937578;28;20045;-79
2022/06/10 01:33:21;;;;;;;5.07;1.40;;;14.00;99.90;;;;;;6940468;28;20064;-79
2022/06/10 01:36:53;;;;;;;4.07;1.98;;;14.00;99.90;;;;;;6923357;28;20069;-81
2022/06/10 01:40:26;;;;;;;4.65;1.60;;;13.90;99.90;;;;;;6929802;28;20519;-79
2022/06/10 01:43:58;;;;;;;4.22;1.30;;;13.90;99.90;;;;;;6941796;28;20077;-79
2022/06/10 01:47:26;;;;;;;6.28;1.70;;;13.90;99.90;;;;;;6941298;28;20072;-80
2022/06/10 01:50:56;;;;;;;3.75;1.50;;;13.90;99.90;;;;;;6940717;28;20048;-79
2022/06/10 01:54:26;;;;;;;4.45;1.70;;;13.90;99.90;;;;;;6942465;28;20126;-80
2022/06/10 01:57:57;;;;;;;5.80;2.05;;;13.90;99.90;;;;;;6941902;28;20057;-80
2022/06/10 02:01:26;;;;;;;4.55;1.65;;;13.80;99.90;;;;;;6942188;28;20076;-80
2022/06/10 02:04:53;;;;;;;4.35;1.50;;;13.80;99.90;;;;;;6942378;28;20050;-81
2022/06/10 02:08:21;;;;;;;5.47;1.65;;;13.80;99.90;;;;;;6942344;28;20506;-80
2022/06/10 02:11:50;;;;;;;5.85;1.48;;;13.70;99.90;;;;;;6940282;28;20053;-78
2022/06/10 02:15:19;;;;;;;4.10;1.63;;;13.70;99.90;;;;;;6941967;28;20077;-81
2022/06/10 02:18:46;;;;;;;5.70;2.20;;;13.70;99.90;;;;;;6942071;28;20062;-80
2022/06/10 02:22:13;;;;;;;5.85;1.60;;;13.70;99.90;;;;;;6941420;28;20092;-81
2022/06/10 02:25:42;;;;;;;6.13;1.83;;;13.70;99.90;;;;;;6941706;28;20045;-81
2022/06/10 02:29:10;;;;;;;5.85;1.92;;;13.70;99.90;;;;;;6941206;28;20487;-80
2022/06/10 02:32:34;;;;;;;3.47;1.60;;;13.60;99.90;;;;;;6941039;28;20499;-78
2022/06/10 02:36:02;;;;;;;5.88;1.60;;;13.60;99.90;;;;;;6940002;28;20076;-79
2022/06/10 02:39:31;;;;;;;3.47;1.70;;;13.50;99.90;;;;;;6924153;28;20148;-81
2022/06/10 02:43:06;;;;;;;3.22;1.63;;;13.50;99.90;;;;;;6941309;28;20060;-79
2022/06/10 02:46:34;;;;;;;5.50;1.70;;;13.50;99.90;;;;;;6942047;28;20060;-80
2022/06/10 02:49:58;;;;;;;5.95;1.90;;;13.50;99.90;;;;;;6909890;28;20052;-80
2022/06/10 02:53:20;;;;;;;4.65;1.65;;;13.50;99.90;;;;;;6940429;28;20053;-79
2022/06/10 02:56:42;;;;;;;4.43;1.88;;;13.50;99.90;;;;;;6940960;28;20088;-80
2022/06/10 03:04:21;;;;;;;6.30;1.60;;;13.40;99.90;;;;;;6939524;28;20577;-81
2022/06/10 03:07:59;;;;;;;4.68;1.50;;;13.50;99.90;;;;;;6937103;28;20077;-79
2022/06/10 03:11:35;;;;;;;5.05;1.70;;;13.40;99.90;;;;;;6940134;28;20056;-79
2022/06/10 03:15:28;;;;;;;4.75;1.63;;;13.40;99.90;;;;;;6940618;28;20069;-80
2022/06/10 03:19:07;;;;;;;4.90;1.60;;;13.40;99.90;;;;;;6940154;28;20555;-79
2022/06/10 03:22:51;;;;;;;4.95;1.60;;;13.40;99.90;;;;;;6940449;28;20126;-81
2022/06/10 03:26:21;;;;;;;5.22;1.65;;;13.40;99.90;;;;;;6930237;28;20470;-79
2022/06/10 03:29:51;;;;;;;6.18;2.00;;;13.30;99.90;;;;;;6940590;28;20080;-78
2022/06/10 03:33:23;;;;;;;3.55;1.50;;;13.30;99.90;;;;;;6939196;28;20042;-80
2022/06/10 03:36:47;;;;;;;5.55;1.75;;;13.30;99.90;;;;;;6940380;28;20115;-80
2022/06/10 03:40:18;;;;;;;7.63;2.10;;;13.30;99.90;;;;;;6941223;28;20050;-76
2022/06/10 03:43:41;;;;;;;4.18;1.70;;;13.20;99.90;;;;;;6939128;28;20057;-75
2022/06/10 03:47:06;;;;;;;4.90;1.63;;;13.30;99.90;;;;;;6939359;28;20069;-77
2022/06/10 03:50:36;;;;;;;5.75;2.17;;;13.30;99.90;;;;;;6941012;28;20479;-77
2022/06/10 03:53:58;;;;;;;5.80;1.80;;;13.30;99.90;;;;;;6926660;28;20038;-79
2022/06/10 03:57:20;;;;;;;7.03;1.90;;;13.30;99.90;;;;;;6940652;28;20061;-79
2022/06/10 04:00:44;;;;;;;5.32;1.70;;;13.30;99.90;;;;;;6938496;28;20132;-78
2022/06/10 04:04:06;;;;;;;7.80;1.80;;;13.30;99.90;;;;;;6941102;28;20049;-78
2022/06/10 04:07:29;;;;;;;4.43;1.92;;;13.30;99.90;;;;;;6940056;28;20484;-79
2022/06/10 04:10:52;;;;;;;5.38;1.50;;;13.30;99.90;;;;;;6939599;28;20088;-78
2022/06/10 04:14:14;;;;;;;4.53;2.05;;;13.20;99.90;;;;;;6943349;28;20046;-78
2022/06/10 04:17:36;;;;;;;7.82;1.98;;;13.20;99.90;;;;;;6944028;28;20100;-80
2022/06/10 04:20:58;;;;;;;4.78;1.58;;;13.30;99.90;;;;;;6943098;28;20045;-79
2022/06/10 04:24:22;;;;;;;4.87;1.73;;;13.30;99.90;;;;;;6945469;28;20057;-78
2022/06/10 04:27:44;;;;;;;4.65;2.03;;;13.30;99.90;;;;;;6944570;28;20041;-79
2022/06/10 04:31:06;;;;;;;6.75;2.38;;;13.40;99.90;;;;;;6941937;28;20142;-77
2022/06/10 04:34:28;;;;;;;4.68;1.85;;;13.40;99.90;;;;;;6944030;28;20196;-79
2022/06/10 04:37:52;;;;;;;6.73;1.90;;;13.40;99.90;;;;;;6946105;28;20515;-79
2022/06/10 04:41:17;;;;;;;6.63;2.00;;;13.40;99.90;;;;;;6945703;28;20093;-76
2022/06/10 04:44:39;;;;;;;5.55;2.10;;;13.40;99.90;;;;;;6945879;28;20092;-80
2022/06/10 04:48:02;;;;;;;6.00;1.80;;;13.50;99.90;;;;;;6946098;28;20077;-79
2022/06/10 04:51:24;;;;;;;4.10;1.75;;;13.50;99.90;;;;;;6945734;28;20056;-79
2022/06/10 04:54:47;;;;;;;4.22;1.80;;;13.60;99.90;;;;;;6946205;28;20475;-78
2022/06/10 04:58:12;;;;;;;5.65;2.42;;;13.70;99.90;;;;;;6945726;28;20487;-78
2022/06/10 05:01:34;;;;;;;7.07;1.95;;;13.70;99.90;;;;;;6945449;28;20115;-78
2022/06/10 05:04:56;;;;;;;6.17;2.00;;;13.70;99.90;;;;;;6946242;28;20068;-77
2022/06/10 05:08:18;;;;;;;7.30;1.70;;;13.70;99.90;;;;;;6945940;28;20087;-77
2022/06/10 05:11:40;;;;;;;4.88;1.88;;;13.70;99.90;;;;;;6945206;28;20514;-77
2022/06/10 05:15:05;;;;;;;6.37;2.10;;;13.60;99.90;;;;;;6946427;28;20092;-79
2022/06/10 05:18:27;;;;;;;7.07;2.33;;;13.70;99.90;;;;;;6946518;28;20064;-78
2022/06/10 05:21:49;;;;;;;9.73;2.70;;;13.70;99.90;;;;;;6945289;28;20041;-78
2022/06/10 05:25:11;;;;;;;6.90;2.20;;;13.80;99.90;;;;;;6944609;28;20053;-76
2022/06/10 05:28:33;;;;;;;8.95;2.30;;;13.80;99.90;;;;;;6944681;28;20046;-77
2022/06/10 05:31:57;;;;;;;4.57;1.90;;;13.80;99.90;;;;;;6944697;28;20046;-77
2022/06/10 05:35:19;;;;;;;6.40;2.08;;;13.90;99.90;;;;;;6944472;28;20466;-78
2022/06/10 05:38:41;;;;;;;6.78;2.05;;;13.90;99.90;;;;;;6944337;28;20056;-78
2022/06/10 05:42:06;;;;;;;6.38;2.03;;;14.00;99.90;;;;;;6944637;28;20072;-78
2022/06/10 05:45:28;;;;;;;5.60;2.30;;;14.10;99.90;;;;;;6944198;28;20434;-78
2022/06/10 05:48:51;;;;;;;9.20;2.60;;;14.10;99.90;;;;;;6944075;28;20167;-78
2022/06/10 05:52:16;;;;;;;9.50;2.15;;;14.20;99.90;;;;;;6944318;28;20103;-78
2022/06/10 05:55:38;;;;;;;7.40;2.35;;;14.20;99.90;;;;;;6944219;28;20514;-77
2022/06/10 05:59:00;;;;;;;8.00;2.67;;;14.20;99.90;;;;;;6944084;28;20076;-75
2022/06/10 06:02:24;;;;;;;6.83;2.50;;;14.40;99.90;;;;;;6943879;28;20068;-78
2022/06/10 06:05:47;;;;;;;8.80;2.78;;;14.40;99.90;;;;;;6943737;28;20107;-78
2022/06/10 06:09:14;;;;;;;6.95;2.60;;;14.50;99.90;;;;;;6943980;28;20147;-77
2022/06/10 06:12:36;;;;;;;8.20;2.08;;;14.60;99.90;;;;;;6943509;28;20075;-76
2022/06/10 06:15:58;;;;;;;5.50;2.05;;;14.70;99.90;;;;;;6943475;28;20085;-78
2022/06/10 06:19:21;;;;;;;6.95;1.95;;;14.80;99.90;;;;;;6943372;28;20077;-78
2022/06/10 06:22:46;;;;;;;6.38;1.90;;;14.80;99.90;;;;;;6943220;28;20045;-78
2022/06/10 06:26:13;;;;;;;7.07;2.17;;;14.90;99.90;;;;;;6943477;28;20476;-79
2022/06/10 06:29:35;;;;;;;7.15;2.30;;;14.90;99.90;;;;;;6943408;28;20050;-79
2022/06/10 06:32:58;;;;;;;4.70;2.00;;;15.00;99.90;;;;;;6943161;28;20534;-75
2022/06/10 06:36:23;;;;;;;6.63;1.80;;;15.00;99.90;;;;;;6943000;28;20503;-78
2022/06/10 06:39:47;;;;;;;5.55;1.83;;;15.10;99.90;;;;;;6943562;28;20358;-78
2022/06/10 06:43:09;;;;;;;8.65;2.30;;;15.20;99.90;;;;;;6942944;28;20495;-79
2022/06/10 06:46:32;;;;;;;6.25;1.95;;;15.20;99.90;;;;;;6943196;28;20126;-78
2022/06/10 06:49:54;;;;;;;7.47;2.40;;;15.20;99.90;;;;;;6944764;28;20499;-79
2022/06/10 06:53:17;;;;;;;9.52;2.30;;;15.30;99.90;;;;;;6947552;28;20064;-76
2022/06/10 06:56:41;;;;;;;8.20;2.45;;;15.30;99.90;;;;;;6949322;28;20463;-76
2022/06/10 07:00:06;;;;;;;7.05;2.17;;;15.40;99.90;;;;;;6943186;28;20464;-77
2022/06/10 07:03:28;;;;;;;6.63;1.80;;;15.50;99.90;;;;;;6943036;28;20100;-77
2022/06/10 07:06:50;;;;;;;7.93;2.20;;;15.60;99.90;;;;;;6942695;28;20085;-77
2022/06/10 07:10:15;;;;;;;5.93;1.97;;;15.70;99.90;;;;;;6943837;28;20095;-76
2022/06/10 07:13:40;;;;;;;6.75;2.00;;;15.80;99.90;;;;;;6943805;28;20088;-76
2022/06/10 07:17:02;;;;;;;8.40;2.55;;;15.80;99.90;;;;;;6943136;28;20134;-77
2022/06/10 07:20:27;;;;;;;6.57;2.05;;;15.80;99.70;;;;;;6942636;28;20088;-78
2022/06/10 07:23:50;;;;;;;10.52;2.28;;;15.90;99.40;;;;;;6942938;28;20136;-79
2022/06/10 07:27:12;;;;;;;9.60;1.90;;;16.00;99.40;;;;;;6942703;28;20128;-78
2022/06/10 07:30:36;;;;;;;6.93;1.88;;;16.10;99.60;;;;;;6942336;28;20050;-78
2022/06/10 07:33:58;;;;;;;6.40;2.10;;;16.10;99.40;;;;;;6942601;28;20410;-78
2022/06/10 07:37:20;;;;;;;6.83;1.80;;;16.20;99.50;;;;;;6942428;28;20048;-78
2022/06/10 07:44:25;;;;;;;6.97;1.90;;;16.40;99.30;;;;;;6941967;28;20089;-78
2022/06/10 07:47:48;;;;;;;5.47;1.90;;;16.50;99.70;;;;;;6942209;28;20080;-77
2022/06/10 07:51:10;;;;;;;5.85;2.08;;;16.60;99.80;;;;;;6947344;28;20076;-78
2022/06/10 07:54:33;;;;;;;7.37;1.90;;;16.60;99.20;;;;;;6947196;28;20242;-78
2022/06/10 07:57:55;;;;;;;6.60;2.00;;;16.70;99.40;;;;;;6947024;28;20050;-78
2022/06/10 08:01:18;;;;;;;8.20;2.07;;;16.70;99.10;;;;;;6946951;28;20491;-79
2022/06/10 08:04:41;;;;;;;152.43;18.92;;;16.80;98.80;;;;;;6948328;28;20092;-79
2022/06/10 08:08:05;;;;;;;10.00;2.45;;;16.80;98.50;;;;;;6947287;28;20084;-80
2022/06/10 08:11:27;;;;;;;4.68;2.00;;;16.90;98.60;;;;;;6946704;28;20519;-78
2022/06/10 08:14:49;;;;;;;8.03;2.00;;;17.00;98.50;;;;;;6946796;28;20049;-79
2022/06/10 08:18:15;;;;;;;7.03;2.22;;;17.10;98.00;;;;;;6946999;28;20085;-75
2022/06/10 08:25:18;;;;;;;10.73;2.53;;;17.20;96.80;;;;;;6946478;28;20053;-78
2022/06/10 08:28:44;;;;;;;9.93;2.10;;;17.30;97.70;;;;;;6946636;28;20507;-78
2022/06/10 08:32:08;;;;;;;8.32;2.00;;;17.40;97.20;;;;;;6946434;28;20081;-78
2022/06/10 08:35:30;;;;;;;6.53;1.70;;;17.40;96.60;;;;;;6946194;28;20085;-78
2022/06/10 08:38:54;;;;;;;7.40;1.73;;;17.50;96.00;;;;;;6946295;28;20076;-80
2022/06/10 08:42:33;;;;;;;7.80;1.60;;;17.60;95.70;;;;;;6945999;28;20080;-79
2022/06/10 08:46:07;;;;;;;129.50;14.90;;;17.70;94.90;;;;;;6945532;28;20092;-78
2022/06/10 08:50:04;;;;;;;13.40;2.90;;;17.80;92.70;;;;;;6945706;28;20049;-80
2022/06/10 08:53:57;;;;;;;5.07;1.50;;;17.90;92.70;;;;;;6945716;28;20045;-78
2022/06/10 08:57:27;;;;;;;7.97;1.80;;;17.90;92.50;;;;;;6945429;28;20491;-79
2022/06/10 09:00:52;;;;;;;6.10;1.65;;;18.00;93.10;;;;;;6945205;28;20052;-79
2022/06/10 09:04:30;;;;;;;5.15;1.80;;;18.10;93.60;;;;;;6945470;28;20049;-79
2022/06/10 09:07:56;;;;;;;7.68;1.80;;;18.20;93.70;;;;;;6945317;28;20045;-79
2022/06/10 09:11:31;;;;;;;5.78;1.63;;;18.30;93.10;;;;;;6945171;28;20407;-77
2022/06/10 09:14:59;;;;;;;8.20;1.70;;;18.30;93.00;;;;;;6944988;28;20050;-78
2022/06/10 09:18:29;;;;;;;7.63;1.73;;;18.30;92.90;;;;;;6945353;28;20092;-78
2022/06/10 09:22:03;;;;;;;8.02;1.90;;;18.50;92.60;;;;;;6944867;28;20076;-78
2022/06/10 09:25:33;;;;;;;6.47;1.67;;;18.60;92.20;;;;;;6945494;28;20056;-79
2022/06/10 09:28:57;;;;;;;9.93;1.80;;;18.70;92.50;;;;;;6944711;28;20088;-79
2022/06/10 09:32:27;;;;;;;8.27;1.55;;;18.80;91.10;;;;;;6944573;28;20164;-79
2022/06/10 09:35:56;;;;;;;7.28;1.73;;;18.80;87.30;;;;;;6944569;28;20110;-79
2022/06/10 09:43:48;;;;;;;67.82;10.32;;;18.90;86.30;;;;;;6945271;28;20049;-77
2022/06/10 09:47:23;;;;;;;6.10;1.55;;;19.00;83.80;;;;;;6944304;28;20056;-79
2022/06/10 09:50:54;;;;;;;109.43;14.98;;;19.00;83.30;;;;;;6944128;28;20092;-77
2022/06/10 09:54:50;;;;;;;98.18;10.73;;;19.10;85.90;;;;;;6944276;28;20088;-79
2022/06/10 09:58:45;;;;;;;68.47;9.60;;;19.20;85.20;;;;;;6944064;28;20046;-79
2022/06/10 10:02:44;;;;;;;30.05;4.90;;;19.30;83.40;;;;;;6943707;28;20049;-77
2022/06/10 10:06:31;;;;;;;5.90;1.60;;;19.20;82.40;;;;;;6943690;28;20045;-79
2022/06/10 10:10:05;;;;;;;6.10;1.60;;;19.20;82.60;;;;;;6943773;28;20108;-78
2022/06/10 10:14:00;;;;;;;5.60;1.42;;;19.40;85.20;;;;;;6942992;28;20049;-78
2022/06/10 10:17:45;;;;;;;6.25;1.60;;;19.50;86.60;;;;;;6932233;28;20081;-76
2022/06/10 10:21:13;;;;;;;6.32;1.77;;;19.60;85.20;;;;;;6943512;28;20053;-78
2022/06/10 10:24:42;;;;;;;6.90;1.67;;;19.70;85.50;;;;;;6943196;28;20157;-79
2022/06/10 10:28:15;;;;;;;5.30;1.30;;;19.60;82.60;;;;;;6943223;28;20048;-78
2022/06/10 10:31:43;;;;;;;6.60;1.50;;;19.80;83.90;;;;;;6943198;28;20096;-78
2022/06/10 10:35:21;;;;;;;5.55;1.50;;;19.90;84.90;;;;;;6942988;28;20499;-78
2022/06/10 10:38:46;;;;;;;5.93;1.70;;;19.80;82.40;;;;;;6943071;28;20081;-78
2022/06/10 10:42:17;;;;;;;5.50;1.40;;;19.90;83.90;;;;;;6943032;28;20052;-79
2022/06/10 10:45:53;;;;;;;7.30;1.70;;;20.00;80.90;;;;;;6942797;28;20057;-79
2022/06/10 10:49:28;;;;;;;6.20;1.52;;;20.00;83.90;;;;;;6942743;28;20085;-78
2022/06/10 10:52:52;;;;;;;5.93;1.45;;;20.20;78.20;;;;;;6944366;28;20095;-76
2022/06/10 10:56:16;;;;;;;6.03;1.60;;;20.20;80.60;;;;;;6944661;28;20096;-76
2022/06/10 10:59:41;;;;;;;4.03;1.23;;;20.30;80.60;;;;;;6939429;28;20096;-78
2022/06/10 11:03:05;;;;;;;4.88;1.45;;;20.40;78.70;;;;;;6893834;28;20038;-78
2022/06/10 11:06:31;;;;;;;6.22;1.40;;;20.40;77.90;;;;;;6937326;28;20049;-78
2022/06/10 11:10:08;;;;;;;6.95;1.50;;;20.40;82.30;;;;;;6942519;28;20049;-78
2022/06/10 11:13:44;;;;;;;4.57;1.27;;;20.50;80.00;;;;;;6942004;28;20050;-78
2022/06/10 11:17:19;;;;;;;6.55;1.58;;;20.60;78.70;;;;;;6896922;28;20095;-80
2022/06/10 11:20:41;;;;;;;5.30;1.17;;;20.60;73.90;;;;;;6907384;28;20061;-79
2022/06/10 11:24:13;;;;;;;5.28;1.52;;;20.60;72.70;;;;;;6920147;28;20519;-80
2022/06/10 11:27:39;;;;;;;4.47;1.20;;;20.50;73.90;;;;;;6922162;28;20049;-77
2022/06/10 11:31:01;;;;;;;5.13;1.30;;;20.60;72.40;;;;;;6945315;28;20112;-79
2022/06/10 11:34:33;;;;;;;4.57;1.55;;;20.70;71.80;;;;;;6945250;28;20080;-78
2022/06/10 11:38:00;;;;;;;5.78;1.23;;;20.70;71.60;;;;;;6941108;28;20049;-78
2022/06/10 11:41:31;;;;;;;7.80;1.33;;;20.80;70.60;;;;;;6943088;28;20053;-81
2022/06/10 11:45:03;;;;;;;4.18;1.30;;;20.80;75.70;;;;;;6943752;28;20045;-80
2022/06/10 11:48:37;;;;;;;5.18;1.25;;;20.90;69.90;;;;;;6941231;28;20092;-78
2022/06/10 11:52:05;;;;;;;3.67;1.20;;;21.00;69.30;;;;;;6942763;28;20041;-79
2022/06/10 11:55:30;;;;;;;3.97;1.10;;;21.10;68.80;;;;;;6943484;28;20076;-79
2022/06/10 12:02:44;;;;;;;8.23;2.80;;;21.20;69.60;;;;;;6908089;28;20066;-77
2022/06/10 12:06:11;;;;;;;3.95;1.23;;;21.40;79.60;;;;;;6925042;28;20046;-75
2022/06/10 12:09:38;;;;;;;3.58;1.10;;;21.50;69.00;;;;;;6920151;28;20061;-76
2022/06/10 12:13:01;;;;;;;6.10;1.35;;;21.60;66.40;;;;;;6926395;28;20056;-75
2022/06/10 12:16:23;;;;;;;5.22;1.17;;;21.50;65.00;;;;;;6919317;28;20050;-75
2022/06/10 12:19:51;;;;;;;6.55;2.10;;;21.50;65.90;;;;;;6929569;28;20104;-77
2022/06/10 12:23:22;;;;;;;4.95;1.20;;;21.60;73.30;;;;;;6945540;28;20060;-77
2022/06/10 12:26:50;;;;;;;4.50;1.27;;;21.80;65.80;;;;;;6944002;28;20089;-78
2022/06/10 12:30:17;;;;;;;3.33;1.02;;;21.90;65.30;;;;;;6951605;28;20403;-76
2022/06/10 12:33:45;;;;;;;3.13;1.35;;;22.00;64.60;;;;;;6945252;28;20083;-77
2022/06/10 12:37:23;;;;;;;3.33;1.20;;;22.20;66.70;;;;;;6944345;28;20064;-79
2022/06/10 12:40:50;;;;;;;5.18;1.50;;;22.40;67.10;;;;;;6946155;28;20527;-77
2022/06/10 12:44:17;;;;;;;4.15;1.20;;;22.60;69.40;;;;;;6941542;28;20077;-78
2022/06/10 12:47:41;;;;;;;5.53;1.25;;;22.80;69.40;;;;;;6945612;28;20045;-77
2022/06/10 12:51:25;;;;;;;4.05;1.20;;;23.00;67.90;;;;;;6945858;28;20074;-78
2022/06/10 12:54:56;;;;;;;4.85;1.33;;;23.20;69.70;;;;;;6943216;28;20065;-78
2022/06/10 12:58:46;;;;;;;5.40;1.23;;;23.30;66.90;;;;;;6944305;28;20077;-80
2022/06/10 13:02:36;;;;;;;4.10;1.15;;;23.50;67.10;;;;;;6945538;28;20127;-78
2022/06/10 13:05:58;;;;;;;4.35;1.27;;;23.70;67.60;;;;;;6945842;28;20065;-76
2022/06/10 13:09:31;;;;;;;4.55;1.60;;;23.50;67.50;;;;;;6949174;28;20055;-77
2022/06/10 13:12:56;;;;;;;4.43;1.52;;;23.20;67.10;;;;;;6947959;28;20096;-78
2022/06/10 13:16:40;;;;;;;4.93;1.48;;;23.30;68.00;;;;;;6943309;28;20099;-76
2022/06/10 13:20:22;;;;;;;4.47;1.20;;;23.40;68.20;;;;;;6945837;28;20045;-78
2022/06/10 13:24:02;;;;;;;5.22;1.50;;;23.60;67.20;;;;;;6946907;28;20490;-76
2022/06/10 13:27:28;;;;;;;4.13;1.33;;;23.80;67.30;;;;;;6945404;28;20522;-78
2022/06/10 13:31:02;;;;;;;4.88;1.10;;;23.80;66.40;;;;;;6943959;28;20081;-76
2022/06/10 13:34:28;;;;;;;4.90;1.33;;;23.90;66.00;;;;;;6911669;28;20049;-78
2022/06/10 13:37:56;;;;;;;4.72;1.38;;;24.20;64.60;;;;;;6945448;28;20045;-74
2022/06/10 13:45:19;;;;;;;4.70;1.48;;;24.60;62.60;;;;;;6943041;28;20446;-78
2022/06/10 13:48:42;;;;;;;5.60;1.90;;;24.80;62.10;;;;;;6943689;28;20049;-77
2022/06/10 13:52:25;;;;;;;7.65;2.80;;;24.90;61.10;;;;;;6941579;28;20091;-79
2022/06/10 13:55:55;;;;;;;6.63;1.70;;;25.10;62.80;;;;;;6938128;28;20056;-78
2022/06/10 13:59:29;;;;;;;4.15;1.20;;;25.00;61.40;;;;;;6943881;28;20084;-79
2022/06/10 14:02:53;;;;;;;6.13;1.35;;;25.20;63.00;;;;;;6942506;28;20050;-79
2022/06/10 14:06:22;;;;;;;6.78;1.35;;;25.20;61.30;;;;;;6933909;28;20476;-79
2022/06/10 14:09:47;;;;;;;4.65;1.52;;;25.40;59.10;;;;;;6916395;28;20407;-79
2022/06/10 14:13:19;;;;;;;4.10;1.40;;;25.90;58.70;;;;;;6924410;28;20577;-78
2022/06/10 14:16:43;;;;;;;6.18;1.40;;;26.10;58.40;;;;;;6935887;28;20571;-78
2022/06/10 14:20:07;;;;;;;5.63;1.30;;;26.00;57.80;;;;;;6889126;28;20489;-79
2022/06/10 14:23:33;;;;;;;3.30;1.20;;;26.20;56.90;;;;;;6928548;28;20081;-78
2022/06/10 14:27:03;;;;;;;4.70;1.40;;;26.60;58.40;;;;;;6942937;28;20100;-77
2022/06/10 14:30:32;;;;;;;5.93;1.30;;;26.80;57.80;;;;;;6943359;28;20132;-79
2022/06/10 14:33:57;;;;;;;3.90;1.40;;;27.00;59.80;;;;;;6940666;28;20128;-79
2022/06/10 14:37:31;;;;;;;5.85;1.30;;;27.40;58.00;;;;;;6942045;28;20084;-79
2022/06/10 14:40:58;;;;;;;4.88;1.45;;;27.60;57.40;;;;;;6920872;28;20069;-79
2022/06/10 14:44:23;;;;;;;4.70;1.50;;;27.80;57.80;;;;;;6914229;28;20049;-78
2022/06/10 14:48:10;;;;;;;5.40;1.45;;;28.00;55.90;;;;;;6915690;28;20083;-77
2022/06/10 14:51:40;;;;;;;6.20;1.48;;;28.00;56.20;;;;;;6926319;28;20107;-78
2022/06/10 14:55:04;;;;;;;3.67;1.00;;;28.30;55.90;;;;;;6942658;28;20483;-79
2022/06/10 14:58:28;;;;;;;4.75;1.45;;;28.20;55.30;;;;;;6916395;28;20092;-80
2022/06/10 15:01:51;;;;;;;4.38;1.40;;;28.40;55.60;;;;;;6913311;28;20085;-78
2022/06/10 15:09:23;;;;;;;3.75;1.40;;;27.70;53.50;;;;;;6832252;28;20043;-78
2022/06/10 15:12:48;;;;;;;3.63;1.15;;;27.20;56.50;;;;;;6849516;28;20448;-79
2022/06/10 15:16:16;;;;;;;4.03;1.60;;;27.30;54.10;;;;;;6914830;28;20054;-78
2022/06/10 15:19:38;;;;;;;4.18;1.50;;;27.30;53.80;;;;;;6914541;28;20081;-79
2022/06/10 15:23:00;;;;;;;;;;;27.40;54.60;;;;;;6915760;28;20089;-75
2022/06/10 15:26:25;;;;;;;4.07;1.17;;;27.60;53.70;;;;;;6915937;28;19928;-77
2022/06/10 15:29:49;;;;;;;4.22;1.23;;;27.30;54.00;;;;;;6925170;28;20046;-77
2022/06/10 15:33:14;;;;;;;6.13;1.38;;;27.20;53.80;;;;;;6923646;28;20045;-76
2022/06/10 15:44:00;;;;;;;4.25;1.20;;;27.70;53.60;;;;;;6923227;28;20045;-79
2022/06/10 15:47:24;;;;;;;3.60;1.20;;;27.60;56.40;;;;;;6939527;28;20088;-77
2022/06/10 15:50:52;;;;;;;4.50;1.17;;;27.60;54.30;;;;;;6941886;28;20179;-79
2022/06/10 15:54:19;;;;;;;4.03;1.33;;;27.50;54.90;;;;;;6938407;28;20077;-77
2022/06/10 15:57:45;;;;;;;4.68;1.40;;;28.10;52.80;;;;;;6917719;28;20088;-77
2022/06/10 16:01:10;;;;;;;3.50;1.00;;;29.30;51.10;;;;;;6938517;28;20137;-78
2022/06/10 16:04:32;;;;;;;2.97;1.10;;;29.80;51.10;;;;;;6941705;28;20506;-78
2022/06/10 16:07:55;;;;;;;4.07;1.30;;;29.20;50.20;;;;;;6933650;28;20077;-79
2022/06/10 16:11:20;;;;;;;3.15;1.27;;;28.90;50.70;;;;;;6934924;28;20053;-75
2022/06/10 16:14:44;;;;;;;5.15;1.20;;;28.70;50.80;;;;;;6928273;28;20045;-78
2022/06/10 16:18:16;;;;;;;3.78;1.00;;;28.40;49.80;;;;;;6940362;28;20048;-78
2022/06/10 16:21:38;;;;;;;3.92;1.30;;;27.90;50.30;;;;;;6953175;28;20045;-79
2022/06/10 16:25:01;;;;;;;4.55;1.00;;;27.60;50.60;;;;;;6958844;28;20046;-78
2022/06/10 16:28:27;;;;;;;3.40;1.00;;;27.70;51.00;;;;;;6957086;28;20052;-79
2022/06/10 16:31:49;;;;;;;4.05;1.10;;;27.90;53.30;;;;;;6952056;28;20480;-77
2022/06/10 16:35:17;;;;;;;3.65;1.10;;;28.00;51.40;;;;;;6946665;28;20041;-78
2022/06/10 16:38:40;;;;;;;3.63;1.02;;;28.00;51.00;;;;;;6921713;28;20050;-77
2022/06/10 16:42:05;;;;;;;2.20;1.00;;;27.80;50.50;;;;;;6920437;28;20050;-81
2022/06/10 16:45:29;;;;;;;4.70;1.20;;;27.90;50.00;;;;;;6943162;28;20523;-79
2022/06/10 16:48:51;;;;;;;8.30;4.85;;;27.80;49.70;;;;;;6945035;28;20073;-78
2022/06/10 16:52:17;;;;;;;3.33;1.02;;;27.70;51.60;;;;;;6944715;28;20199;-78
2022/06/10 16:55:41;;;;;;;2.65;0.90;;;27.60;51.90;;;;;;6941997;28;20128;-78
2022/06/10 16:59:05;;;;;;;4.82;1.90;;;27.50;52.70;;;;;;6945433;28;20053;-78
2022/06/10 17:02:33;;;;;;;4.47;1.67;;;27.40;53.20;;;;;;6944061;28;20076;-77
2022/06/10 17:05:55;;;;;;;3.97;1.20;;;27.90;52.00;;;;;;6943393;28;20045;-84
2022/06/10 17:09:17;;;;;;;2.25;1.02;;;28.10;50.00;;;;;;6942791;28;20045;-82
2022/06/10 17:12:43;;;;;;;3.83;1.00;;;28.10;50.50;;;;;;6942484;28;20419;-76
2022/06/10 17:16:17;;;;;;;5.18;1.60;;;28.00;48.40;;;;;;6935346;28;20080;-79
2022/06/10 17:19:39;;;;;;;4.55;2.10;;;27.90;49.20;;;;;;6917478;28;20053;-78
2022/06/10 17:23:02;;;;;;;3.00;1.00;;;28.00;49.50;;;;;;6938985;28;20045;-81
2022/06/10 17:26:29;;;;;;;3.50;1.20;;;27.90;50.90;;;;;;6942392;28;20088;-80
2022/06/10 17:29:52;;;;;;;3.33;1.20;;;28.20;51.10;;;;;;6944561;28;20054;-77
2022/06/10 17:33:22;;;;;;;3.85;1.25;;;28.40;49.50;;;;;;6936417;28;20494;-80
2022/06/10 17:36:44;;;;;;;3.92;1.10;;;28.10;51.20;;;;;;6921638;28;20077;-78
2022/06/10 17:40:08;;;;;;;3.95;1.55;;;28.10;50.50;;;;;;6916969;28;20082;-79
2022/06/10 17:43:39;;;;;;;4.05;1.23;;;28.10;50.40;;;;;;6917025;28;20046;-80
2022/06/10 17:47:04;;;;;;;2.80;1.25;;;28.30;51.10;;;;;;6941301;28;20045;-77
2022/06/10 17:50:29;;;;;;;4.57;1.38;;;28.20;51.90;;;;;;6916199;28;20073;-77
2022/06/10 17:53:51;;;;;;;4.53;1.23;;;28.40;53.00;;;;;;6941568;28;20052;-79
2022/06/10 17:57:26;;;;;;;3.45;1.30;;;28.40;52.20;;;;;;6938057;28;20139;-79
2022/06/10 18:00:50;;;;;;;3.90;1.33;;;27.90;53.60;;;;;;6941346;28;20800;-79
2022/06/10 18:04:13;;;;;;;4.40;1.30;;;27.90;54.30;;;;;;6939401;28;20045;-79
2022/06/10 18:07:36;;;;;;;6.07;3.05;;;27.80;53.90;;;;;;6939171;28;20057;-80
2022/06/10 18:11:00;;;;;;;8.27;3.40;;;27.90;54.00;;;;;;6940282;28;20077;-77
2022/06/10 18:18:02;;;;;;;5.55;1.60;;;27.80;55.40;;;;;;6913269;28;20045;-77
2022/06/10 18:21:26;;;;;;;3.85;1.40;;;27.70;56.10;;;;;;6939684;28;20052;-77
2022/06/10 18:24:51;;;;;;;3.35;1.30;;;27.30;55.70;;;;;;6928231;28;20049;-78
2022/06/10 18:28:13;;;;;;;4.35;1.23;;;27.10;56.70;;;;;;6910560;28;20050;-77
2022/06/10 18:31:35;;;;;;;4.53;1.05;;;27.00;56.80;;;;;;6919263;28;20454;-77
2022/06/10 18:35:05;;;;;;;3.10;1.27;;;27.10;56.80;;;;;;6939678;28;20046;-78
2022/06/10 18:38:27;;;;;;;2.65;1.20;;;27.20;57.40;;;;;;6936387;28;20049;-79
2022/06/10 18:41:51;;;;;;;3.50;1.20;;;27.20;57.50;;;;;;6938236;28;20495;-77